Time;durP1;ratioP1;P1;durP2;ratioP2;P2;SDS_P1;SDS_P2;PMS_P1;PMS_P2;Temp;Humidity;BMP_temperature;BMP_pressure;BME280_temperature;BME280_humidity;BME280_pressure;Samples;Min_cycle;Max_cycle;Signal;HPM_P1;HPM_P2
2023/08/22 00:00:43;;;;;;;7.38;5.20;;;;;;;24.88;64.58;97060.44;4916617;29;20116;-72
2023/08/22 00:03:10;;;;;;;7.28;5.55;;;;;;;24.86;64.38;97058.06;4916803;29;20056;-72
2023/08/22 00:05:38;;;;;;;8.40;5.30;;;;;;;24.86;64.66;97068.72;4916208;29;20048;-72
2023/08/22 00:08:06;;;;;;;10.48;5.20;;;;;;;24.88;64.46;97060.44;4916769;29;20048;-72
2023/08/22 00:10:34;;;;;;;8.85;5.20;;;;;;;24.90;64.34;97065.53;4917208;29;20048;-72
2023/08/22 00:13:02;;;;;;;6.80;5.32;;;;;;;24.86;64.36;97058.06;4916495;29;20083;-72
2023/08/22 00:15:31;;;;;;;7.10;4.60;;;;;;;24.83;64.27;97058.56;4916553;29;20493;-72
2023/08/22 00:17:59;;;;;;;8.20;5.85;;;;;;;24.78;64.62;97058.56;4916668;29;20053;-72
2023/08/22 00:20:27;;;;;;;7.55;5.20;;;;;;;24.72;64.74;97064.13;4916752;29;20341;-72
2023/08/22 00:22:55;;;;;;;5.03;4.55;;;;;;;24.64;65.10;97058.25;4916192;29;20056;-72
2023/08/22 00:25:22;;;;;;;10.90;5.07;;;;;;;24.61;65.26;97050.75;4916444;29;20111;-72
2023/08/22 00:27:50;;;;;;;7.40;5.45;;;;;;;24.59;65.13;97052.06;4916226;29;20048;-72
2023/08/22 00:30:17;;;;;;;9.75;5.28;;;;;;;24.56;65.30;97052.59;4916573;29;20112;-71
2023/08/22 00:32:46;;;;;;;7.63;5.30;;;;;;;24.53;65.13;97053.91;4916426;29;20083;-72
2023/08/22 00:35:14;;;;;;;8.80;5.43;;;;;;;24.50;65.20;97049.09;4916119;29;20594;-72
2023/08/22 00:37:41;;;;;;;6.53;5.55;;;;;;;24.49;65.45;97055.50;4916312;29;20159;-72
2023/08/22 00:40:09;;;;;;;8.80;5.55;;;;;;;24.47;65.50;97046.94;4916107;29;20136;-72
2023/08/22 00:42:37;;;;;;;5.82;5.20;;;;;;;24.46;65.65;97045.31;4915824;29;20506;-72
2023/08/22 00:45:06;;;;;;;8.13;5.00;;;;;;;24.43;65.47;97043.97;4916285;29;20170;-72
2023/08/22 00:47:34;;;;;;;10.63;6.25;;;;;;;24.40;65.50;97043.69;4916233;29;20063;-72
2023/08/22 00:50:04;;;;;;;8.55;5.22;;;;;;;24.35;65.93;97047.13;4915942;29;20056;-72
2023/08/22 00:52:32;;;;;;;8.77;5.78;;;;;;;24.31;66.09;97045.25;4915981;29;20059;-72
2023/08/22 00:55:00;;;;;;;5.80;5.30;;;;;;;24.27;65.96;97040.44;4915914;29;20060;-72
2023/08/22 00:57:27;;;;;;;10.27;6.00;;;;;;;24.24;66.45;97040.16;4915924;29;20124;-71
2023/08/22 00:59:56;;;;;;;8.38;5.65;;;;;;;24.23;66.21;97039.34;4915822;29;20514;-72
2023/08/22 01:02:23;;;;;;;6.72;5.10;;;;;;;24.21;66.30;97036.13;4917170;29;20430;-71
2023/08/22 01:04:51;;;;;;;6.78;5.28;;;;;;;24.21;66.68;97036.13;4915978;29;20048;-72
2023/08/22 01:07:27;;;;;;;7.05;5.70;;;;;;;24.24;66.85;97035.63;4915501;29;20056;-72
2023/08/22 01:10:02;;;;;;;5.78;5.25;;;;;;;24.26;66.58;97038.03;4915903;29;20052;-72
2023/08/22 01:12:36;;;;;;;5.95;5.28;;;;;;;24.24;66.52;97032.94;4915660;29;20051;-72
2023/08/22 01:15:11;;;;;;;8.50;5.28;;;;;;;24.24;66.59;97043.59;4915760;29;20103;-72
2023/08/22 01:17:40;;;;;;;6.88;5.30;;;;;;;24.24;66.38;97034.81;4915669;29;20093;-71
2023/08/22 01:20:11;;;;;;;6.63;5.40;;;;;;;24.22;66.41;97040.41;4915887;29;20083;-72
2023/08/22 01:22:41;;;;;;;7.90;5.20;;;;;;;24.18;66.88;97035.84;4915642;29;20466;-72
2023/08/22 01:25:10;;;;;;;7.88;5.47;;;;;;;24.15;66.71;97036.38;4915629;29;20052;-72
2023/08/22 01:27:47;;;;;;;6.47;5.40;;;;;;;24.13;67.34;97044.63;4915549;29;20478;-72
2023/08/22 01:30:21;;;;;;;6.75;5.85;;;;;;;24.16;67.17;97041.44;4915373;29;20120;-72
2023/08/22 01:32:52;;;;;;;10.30;6.15;;;;;;;24.16;66.95;97037.97;4915403;29;20052;-72
2023/08/22 01:35:23;;;;;;;9.15;5.72;;;;;;;24.12;67.22;97037.69;4922433;29;20056;-72
2023/08/22 01:37:54;;;;;;;6.82;6.13;;;;;;;24.07;67.62;97034.97;4919991;29;20048;-72
2023/08/22 01:40:24;;;;;;;8.48;5.72;;;;;;;24.00;67.67;97029.09;4915334;29;20048;-72
2023/08/22 01:42:52;;;;;;;7.70;5.93;;;;;;;23.96;67.58;97028.00;4914984;29;20503;-72
2023/08/22 01:45:19;;;;;;;8.20;5.47;;;;;;;23.93;67.79;97036.50;4915551;29;20063;-72
2023/08/22 01:47:47;;;;;;;6.82;5.20;;;;;;;23.87;68.03;97034.88;4915370;29;20056;-72
2023/08/22 01:50:16;;;;;;;9.00;5.82;;;;;;;23.82;68.44;97031.09;4915433;29;20056;-72
2023/08/22 01:52:44;;;;;;;9.73;6.22;;;;;;;23.82;68.56;97024.97;4914885;29;20048;-72
2023/08/22 01:55:14;;;;;;;7.50;5.72;;;;;;;23.87;67.77;97025.00;4915233;29;20113;-72
2023/08/22 01:57:42;;;;;;;6.72;5.60;;;;;;;23.93;67.62;97020.53;4915296;29;20052;-72
2023/08/22 02:00:10;;;;;;;6.60;5.45;;;;;;;23.95;67.41;97023.72;4915357;29;20099;-72
2023/08/22 02:02:38;;;;;;;6.65;5.55;;;;;;;23.94;67.36;97024.78;4914939;29;20048;-72
2023/08/22 02:05:05;;;;;;;8.73;5.63;;;;;;;23.89;67.82;97024.75;4915221;29;20056;-72
2023/08/22 02:07:34;;;;;;;8.50;5.60;;;;;;;23.84;67.98;97029.00;4915206;29;20052;-72
2023/08/22 02:10:03;;;;;;;9.60;5.82;;;;;;;23.79;67.90;97022.81;4915000;29;20044;-72
2023/08/22 02:12:33;;;;;;;11.43;6.30;;;;;;;23.73;68.55;97027.28;4915095;29;20494;-72
2023/08/22 02:15:01;;;;;;;9.45;6.28;;;;;;;23.68;68.18;97026.44;4915238;29;20060;-72
2023/08/22 02:17:28;;;;;;;8.48;5.75;;;;;;;23.62;68.48;97013.09;4914982;29;20094;-72
2023/08/22 02:19:56;;;;;;;8.75;5.53;;;;;;;23.59;68.93;97018.09;4915062;29;20048;-72
2023/08/22 02:22:23;;;;;;;6.10;5.35;;;;;;;23.57;68.50;97017.56;4914677;29;20052;-72
2023/08/22 02:24:51;;;;;;;7.28;5.43;;;;;;;23.53;68.75;97021.81;4915142;29;20044;-71
2023/08/22 02:27:19;;;;;;;7.22;5.70;;;;;;;23.49;69.06;97013.53;4915150;29;20081;-71
2023/08/22 02:29:48;;;;;;;9.65;5.80;;;;;;;23.47;69.32;97020.16;4918593;29;20632;-71
2023/08/22 02:32:15;;;;;;;5.95;5.35;;;;;;;23.47;69.30;97014.84;4918374;29;20052;-72
2023/08/22 02:34:43;;;;;;;7.75;5.07;;;;;;;23.44;69.32;97011.63;4918343;29;20052;-72
2023/08/22 02:37:10;;;;;;;6.32;5.57;;;;;;;23.42;69.25;97016.41;4918286;29;20522;-72
2023/08/22 02:39:38;;;;;;;9.00;5.97;;;;;;;23.42;69.31;97012.94;4918461;29;20503;-72
2023/08/22 02:42:06;;;;;;;8.13;5.63;;;;;;;23.40;69.36;97013.19;4918194;29;20810;-72
2023/08/22 02:44:34;;;;;;;10.50;5.88;;;;;;;23.41;69.16;97001.47;4918559;29;20084;-72
2023/08/22 02:47:03;;;;;;;7.50;5.80;;;;;;;23.43;69.14;97007.34;4918202;29;20099;-72
2023/08/22 02:49:30;;;;;;;8.77;5.85;;;;;;;23.45;69.00;96997.25;4917990;29;20441;-71
2023/08/22 02:51:58;;;;;;;6.93;5.70;;;;;;;23.46;68.84;96998.03;4917223;29;20059;-72
2023/08/22 02:54:26;;;;;;;8.55;5.38;;;;;;;23.45;68.68;96991.91;4917589;29;20141;-71
2023/08/22 02:56:53;;;;;;;7.13;6.00;;;;;;;23.41;69.04;97001.47;4917561;29;20107;-71
2023/08/22 02:59:21;;;;;;;10.80;5.55;;;;;;;23.36;69.07;96998.78;4917636;29;20246;-72
2023/08/22 03:01:48;;;;;;;8.55;6.45;;;;;;;23.33;69.46;96999.28;4916685;29;20060;-72
2023/08/22 03:04:17;;;;;;;9.57;6.28;;;;;;;23.30;69.23;96999.78;4918558;29;20051;-72
2023/08/22 03:06:45;;;;;;;9.68;5.85;;;;;;;23.27;69.46;96996.84;4935632;29;20052;-72
2023/08/22 03:09:13;;;;;;;9.25;6.10;;;;;;;23.24;69.33;97006.13;4938895;29;20056;-72
2023/08/22 03:11:41;;;;;;;9.00;5.88;;;;;;;23.21;69.87;97010.09;4938067;29;20055;-72
2023/08/22 03:14:08;;;;;;;11.00;6.70;;;;;;;23.19;69.74;97011.41;4923721;29;20056;-71
2023/08/22 03:16:36;;;;;;;10.40;6.25;;;;;;;23.15;69.89;97007.63;4914330;29;20059;-72
2023/08/22 03:19:04;;;;;;;11.68;5.97;;;;;;;23.12;69.77;97008.94;4920875;29;20052;-71
2023/08/22 03:21:33;;;;;;;8.73;5.70;;;;;;;23.10;70.32;97010.25;4919550;29;20087;-72
2023/08/22 03:24:00;;;;;;;9.13;5.65;;;;;;;23.12;69.92;97016.13;4918104;29;20553;-72
2023/08/22 03:26:28;;;;;;;7.32;5.50;;;;;;;23.17;70.09;97021.50;4917609;29;20080;-71
2023/08/22 03:28:55;;;;;;;8.52;6.35;;;;;;;23.25;69.91;97018.38;4917706;29;20056;-71
2023/08/22 03:31:25;;;;;;;9.68;6.63;;;;;;;23.33;69.63;97015.25;4917654;29;20514;-71
2023/08/22 03:33:53;;;;;;;8.05;5.88;;;;;;;23.40;69.12;97015.84;4917286;29;20048;-71
2023/08/22 03:36:21;;;;;;;9.43;6.20;;;;;;;23.43;69.16;97015.31;4917359;29;20056;-71
2023/08/22 03:38:51;;;;;;;7.72;6.05;;;;;;;23.47;68.82;97009.50;4916828;29;20500;-72
2023/08/22 03:41:19;;;;;;;12.25;5.70;;;;;;;23.49;68.84;97012.72;4917109;29;20478;-71
2023/08/22 03:43:46;;;;;;;7.15;6.20;;;;;;;23.48;68.65;97008.44;4917208;29;20048;-71
2023/08/22 03:46:14;;;;;;;9.18;5.85;;;;;;;23.44;69.16;97008.97;4917325;29;20058;-71
2023/08/22 03:48:58;;;;;;;6.72;5.82;;;;;;;23.48;68.69;97005.78;4917441;29;20138;-72
2023/08/22 03:51:26;;;;;;;8.40;5.22;;;;;;;23.51;68.39;97010.63;4923862;29;20056;-72
2023/08/22 03:53:55;;;;;;;10.88;6.60;;;;;;;23.51;68.45;97002.63;4922233;29;20044;-72
2023/08/22 03:56:23;;;;;;;8.68;5.90;;;;;;;23.47;68.44;97001.53;4917228;29;20052;-71
2023/08/22 03:58:50;;;;;;;7.57;6.72;;;;;;;23.38;68.55;96990.53;4917148;29;20470;-72
2023/08/22 04:01:18;;;;;;;8.85;6.75;;;;;;;23.28;69.01;96996.56;4916788;29;20051;-71
2023/08/22 04:03:46;;;;;;;8.95;6.35;;;;;;;23.20;69.26;96984.53;4916846;29;20052;-71
2023/08/22 04:06:13;;;;;;;7.40;6.03;;;;;;;23.13;69.67;96988.44;4916797;29;20478;-71
2023/08/22 04:08:41;;;;;;;7.75;6.00;;;;;;;23.08;70.08;96994.53;4916683;29;20581;-71
2023/08/22 04:11:10;;;;;;;11.32;6.40;;;;;;;23.03;70.08;97005.94;4917088;29;20060;-72
2023/08/22 04:13:37;;;;;;;11.25;6.72;;;;;;;22.97;70.26;97001.59;4909337;29;20047;-72
2023/08/22 04:16:05;;;;;;;7.55;5.97;;;;;;;22.92;70.48;96998.88;4916785;29;20051;-72
2023/08/22 04:18:33;;;;;;;7.78;6.18;;;;;;;22.91;70.56;97012.44;4916691;29;20052;-72
2023/08/22 04:21:00;;;;;;;8.65;6.38;;;;;;;22.93;70.86;97008.44;4916397;29;20056;-71
2023/08/22 04:23:28;;;;;;;9.43;6.55;;;;;;;22.98;70.94;97015.69;4916307;29;20510;-71
2023/08/22 04:25:56;;;;;;;13.13;6.45;;;;;;;23.03;70.19;97011.25;4916684;29;20067;-71
2023/08/22 04:28:25;;;;;;;8.85;6.38;;;;;;;23.06;70.25;97019.78;4916873;29;20056;-71
2023/08/22 04:30:57;;;;;;;8.43;6.05;;;;;;;23.02;70.88;97011.50;4916588;29;20055;-71
2023/08/22 04:33:25;;;;;;;8.57;6.32;;;;;;;23.02;70.21;97014.16;4917075;29;20142;-71
2023/08/22 04:35:52;;;;;;;7.85;5.90;;;;;;;23.08;70.41;97015.03;4916579;29;20052;-72
2023/08/22 04:38:21;;;;;;;11.48;6.53;;;;;;;23.11;70.06;97018.00;4929468;29;20135;-72
2023/08/22 04:40:48;;;;;;;8.55;5.78;;;;;;;23.19;70.01;97017.53;4935368;29;20048;-71
2023/08/22 04:43:16;;;;;;;6.63;5.97;;;;;;;23.22;69.52;97018.88;4929163;29;20052;-71
2023/08/22 04:45:45;;;;;;;10.05;6.50;;;;;;;23.18;70.00;97023.91;4920642;29;20044;-72
2023/08/22 04:48:13;;;;;;;6.75;6.07;;;;;;;23.14;70.21;97022.81;4931756;29;20051;-71
2023/08/22 04:50:40;;;;;;;8.68;6.10;;;;;;;23.11;70.22;97012.69;4934901;29;20051;-72
2023/08/22 04:53:08;;;;;;;11.95;6.95;;;;;;;23.08;69.96;97017.69;4930418;29;20085;-71
2023/08/22 04:55:35;;;;;;;7.55;6.00;;;;;;;23.04;70.43;97014.72;4916827;29;20051;-72
2023/08/22 04:58:02;;;;;;;9.48;7.05;;;;;;;23.06;70.54;97017.13;4925531;29;20055;-71
2023/08/22 05:00:30;;;;;;;6.38;5.85;;;;;;;23.13;70.22;97015.84;4917137;29;20052;-71
2023/08/22 05:02:59;;;;;;;9.98;6.22;;;;;;;23.21;69.94;97019.94;4926948;29;20079;-71
2023/08/22 05:05:27;;;;;;;7.72;6.20;;;;;;;23.23;69.86;97026.59;4915931;29;20403;-72
2023/08/22 05:07:54;;;;;;;14.02;6.63;;;;;;;23.27;70.11;97031.44;4922351;29;20052;-72
2023/08/22 05:10:23;;;;;;;15.57;6.63;;;;;;;23.33;69.89;97030.41;4922946;29;20110;-72
2023/08/22 05:12:54;;;;;;;10.43;6.00;;;;;;;23.39;69.28;97035.53;4950189;28;20051;-78
2023/08/22 05:15:23;;;;;;;12.10;6.20;;;;;;;23.44;69.30;97035.59;4941272;29;20040;-79
2023/08/22 05:17:52;;;;;;;9.43;6.22;;;;;;;23.47;68.73;97044.91;4941895;29;20044;-77
2023/08/22 05:20:24;;;;;;;11.90;6.32;;;;;;;23.43;68.84;97039.28;4941768;29;20036;-78
2023/08/22 05:22:52;;;;;;;8.05;6.82;;;;;;;23.45;69.08;97041.72;4941854;29;20065;-77
2023/08/22 05:27:56;;;;;;;7.30;6.53;;;;;;;23.52;68.73;97049.47;5179389;23;20070;-79
2023/08/22 05:30:32;;;;;;;8.35;6.75;;;;;;;23.56;68.54;97048.72;4942768;29;20039;-80
2023/08/22 05:33:01;;;;;;;8.43;6.40;;;;;;;23.58;68.41;97053.81;4961504;29;20040;-79
2023/08/22 05:35:31;;;;;;;8.45;6.40;;;;;;;23.59;68.52;97050.06;4962350;29;20099;-79
2023/08/22 05:38:01;;;;;;;10.18;7.95;;;;;;;23.57;68.66;97046.84;4961489;28;20042;-78
2023/08/22 05:40:30;;;;;;;8.90;7.50;;;;;;;23.51;69.14;97054.00;4960629;28;20032;-79
2023/08/22 05:42:59;;;;;;;7.95;7.15;;;;;;;23.50;69.07;97055.06;5058030;23;20036;-82
2023/08/22 05:45:34;;;;;;;;;;;;;;;23.49;69.27;97056.13;4961568;29;20052;-81
2023/08/22 05:48:03;;;;;;;8.77;7.03;;;;;;;23.52;69.41;97054.81;4961357;29;19965;-81
2023/08/22 05:50:38;;;;;;;12.77;9.85;;;;;;;23.58;69.32;97059.91;4961277;29;20036;-81
2023/08/22 05:53:07;;;;;;;17.80;11.57;;;;;;;23.62;69.17;97060.22;4961050;29;20091;-81
2023/08/22 05:55:40;;;;;;;17.75;11.20;;;;;;;23.64;69.37;97052.78;4961239;29;20032;-81
2023/08/22 05:58:10;;;;;;;17.35;11.05;;;;;;;23.65;69.02;97049.84;4961010;28;20059;-82
2023/08/22 06:00:41;;;;;;;18.83;10.75;;;;;;;23.68;69.42;97061.06;4959829;28;20028;-81
2023/08/22 06:03:12;;;;;;;17.30;10.57;;;;;;;23.75;68.84;97056.34;4961422;28;20035;-81
2023/08/22 06:05:51;;;;;;;20.27;10.43;;;;;;;23.78;68.99;97058.50;4963490;28;20036;-81
2023/08/22 06:08:25;;;;;;;19.27;10.73;;;;;;;23.82;69.01;97065.72;4963834;28;20046;-82
2023/08/22 06:10:56;;;;;;;18.77;11.43;;;;;;;23.87;69.30;97061.50;4963455;28;20051;-81
2023/08/22 06:13:29;;;;;;;17.20;10.93;;;;;;;23.89;68.80;97064.72;4963507;28;20059;-81
2023/08/22 06:15:58;;;;;;;15.82;9.38;;;;;;;23.91;68.88;97065.28;4963356;28;20042;-81
2023/08/22 06:18:27;;;;;;;14.43;10.13;;;;;;;23.95;68.57;97069.03;4963202;28;20032;-81
2023/08/22 06:21:06;;;;;;;15.50;9.70;;;;;;;24.04;68.37;97070.94;4963322;28;20055;-82
2023/08/22 06:23:43;;;;;;;14.30;9.95;;;;;;;24.11;68.54;97072.59;4963495;28;20042;-81
2023/08/22 06:26:17;;;;;;;15.55;10.57;;;;;;;24.18;68.68;97068.66;4963270;28;20066;-81
2023/08/22 06:28:50;;;;;;;14.70;9.75;;;;;;;24.27;67.95;97067.09;4963359;28;20039;-81
2023/08/22 06:31:20;;;;;;;15.70;9.05;;;;;;;24.35;67.85;97071.13;4963043;28;20035;-81
2023/08/22 06:33:58;;;;;;;15.00;8.98;;;;;;;24.46;67.39;97074.66;4963121;28;20047;-81
2023/08/22 06:36:31;;;;;;;11.95;8.77;;;;;;;24.54;67.05;97074.19;4963264;28;20055;-81
2023/08/22 06:39:03;;;;;;;9.73;7.85;;;;;;;24.61;66.96;97069.41;4963116;28;20035;-82
2023/08/22 06:41:32;;;;;;;10.27;7.03;;;;;;;24.69;66.62;97073.47;4962619;28;20056;-80
2023/08/22 06:44:08;;;;;;;9.20;7.30;;;;;;;24.77;66.42;97074.81;4963168;28;20036;-80
2023/08/22 06:46:39;;;;;;;14.60;8.70;;;;;;;24.87;66.56;97074.84;4962737;28;20099;-82
2023/08/22 06:49:14;;;;;;;16.17;9.60;;;;;;;24.98;66.19;97068.47;4962903;28;20095;-81
2023/08/22 06:51:49;;;;;;;15.10;8.68;;;;;;;25.07;66.09;97074.91;4962649;28;20063;-81
2023/08/22 06:54:28;;;;;;;10.10;8.18;;;;;;;25.16;65.76;97067.19;4962972;28;20039;-81
2023/08/22 06:57:03;;;;;;;10.00;7.57;;;;;;;25.26;65.86;97066.44;4962747;28;20071;-82
2023/08/22 06:59:42;;;;;;;8.30;7.47;;;;;;;25.31;65.65;97069.13;4962703;28;20036;-81
2023/08/22 07:02:12;;;;;;;14.90;7.47;;;;;;;25.38;65.63;97069.66;4962164;28;20047;-81
2023/08/22 07:04:43;;;;;;;9.80;7.28;;;;;;;25.47;65.57;97068.09;4962640;28;20107;-81
2023/08/22 07:07:14;;;;;;;9.90;7.80;;;;;;;25.58;65.52;97068.06;4962563;28;20397;-81
2023/08/22 07:09:52;;;;;;;9.95;7.43;;;;;;;25.68;64.96;97063.53;4962569;28;20032;-81
2023/08/22 07:12:29;;;;;;;8.68;7.18;;;;;;;25.80;64.49;97071.28;4962416;28;20043;-81
2023/08/22 07:14:59;;;;;;;9.88;7.63;;;;;;;25.90;64.40;97071.31;4962156;28;20043;-82
2023/08/22 07:17:40;;;;;;;10.80;8.18;;;;;;;26.01;63.92;97066.75;4962509;28;20032;-81
2023/08/22 07:20:18;;;;;;;8.25;7.43;;;;;;;26.12;63.52;97062.19;4962444;28;20091;-82
2023/08/22 07:22:52;;;;;;;9.02;6.97;;;;;;;26.24;62.82;97068.06;4962333;28;20036;-82
2023/08/22 07:25:25;;;;;;;14.40;7.95;;;;;;;26.37;62.76;97064.00;4962242;28;20046;-81
2023/08/22 07:27:58;;;;;;;9.85;7.60;;;;;;;26.51;62.38;97072.25;4962142;28;20035;-82
2023/08/22 07:30:30;;;;;;;9.23;7.53;;;;;;;26.63;61.41;97072.78;4962102;28;20059;-81
2023/08/22 07:33:01;;;;;;;12.48;7.53;;;;;;;26.74;61.26;97070.03;4961917;28;20032;-82
2023/08/22 07:35:35;;;;;;;7.93;6.97;;;;;;;26.85;60.91;97080.44;4962227;28;20031;-82
2023/08/22 07:38:06;;;;;;;8.73;6.88;;;;;;;26.95;60.03;97074.22;4962234;28;20036;-81
2023/08/22 07:40:39;;;;;;;10.65;7.07;;;;;;;27.05;59.72;97079.53;4962255;28;20040;-82
2023/08/22 07:43:09;;;;;;;7.50;6.70;;;;;;;27.15;59.72;97067.97;4961836;28;20032;-82
2023/08/22 07:45:40;;;;;;;9.57;6.55;;;;;;;27.27;59.65;97078.38;4962132;28;20095;-81
2023/08/22 07:48:10;;;;;;;10.07;7.28;;;;;;;27.44;59.94;97069.94;4961801;28;20062;-81
2023/08/22 07:50:43;;;;;;;12.82;6.50;;;;;;;27.59;59.61;97066.34;4961929;28;20036;-81
2023/08/22 07:53:17;;;;;;;8.07;7.05;;;;;;;27.72;58.96;97071.06;4961895;28;20074;-81
2023/08/22 07:55:50;;;;;;;9.70;6.53;;;;;;;27.84;58.61;97066.16;4961629;28;20046;-81
2023/08/22 07:58:21;;;;;;;9.00;6.80;;;;;;;27.98;57.95;97074.38;4961971;28;20111;-82
2023/08/22 08:00:54;;;;;;;9.27;6.78;;;;;;;28.12;57.95;97074.53;4961601;28;20056;-82
2023/08/22 08:03:29;;;;;;;7.20;6.50;;;;;;;28.22;56.46;97077.09;4961646;28;20136;-81
2023/08/22 08:06:00;;;;;;;13.57;7.05;;;;;;;28.32;56.21;97076.19;4961371;28;20063;-82
2023/08/22 08:08:34;;;;;;;7.40;6.45;;;;;;;28.48;56.43;97079.53;4961747;28;20031;-82
2023/08/22 08:11:06;;;;;;;8.27;6.30;;;;;;;28.64;55.68;97070.19;4961330;28;20091;-82
2023/08/22 08:13:41;;;;;;;8.65;6.20;;;;;;;28.78;55.24;97075.69;4961467;28;20049;-82
2023/08/22 08:16:25;;;;;;;9.52;5.88;;;;;;;28.93;54.86;97077.38;4961665;28;20051;-82
2023/08/22 08:19:00;;;;;;;7.95;5.38;;;;;;;29.06;54.00;97073.97;4961065;28;20036;-82
2023/08/22 08:21:47;;;;;;;10.77;5.68;;;;;;;29.19;53.13;97079.72;4961121;28;20062;-82
2023/08/22 08:24:28;;;;;;;7.55;5.65;;;;;;;29.34;52.02;97079.50;4961213;28;20051;-82
2023/08/22 08:27:01;;;;;;;7.07;5.82;;;;;;;29.41;51.99;97082.66;4960468;28;20095;-82
2023/08/22 08:56:15;;;;;;;;;;;;;;;30.57;49.56;97080.97;5798689;23;20030;-82
2023/08/22 09:06:01;;;;;;;7.35;5.30;;;;;;;30.88;47.85;97084.97;5436621;23;20175;-81
2023/08/22 09:09:34;;;;;;;8.05;4.85;;;;;;;30.98;47.38;97085.56;4993078;23;20072;-81
2023/08/22 09:19:40;;;;;;;6.97;5.57;;;;;;;31.36;46.79;97087.16;4962642;29;20112;-82
2023/08/22 12:22:38;;;;;;;5.20;2.20;;;;;;;33.77;36.99;97030.00;5356187;23;19931;-82
2023/08/22 12:25:12;;;;;;;2.70;2.10;;;;;;;33.68;36.93;97028.47;4950823;29;20087;-82
2023/08/22 12:27:39;;;;;;;3.42;2.40;;;;;;;33.61;37.38;97024.31;4949065;29;20051;-82
2023/08/22 12:30:08;;;;;;;3.75;2.33;;;;;;;33.62;37.08;97025.91;4948865;29;20051;-82
2023/08/22 12:32:35;;;;;;;3.05;2.10;;;;;;;33.54;36.46;97023.19;4948891;29;20048;-82
2023/08/22 13:05:13;;;;;;;5.60;2.60;;;;;;;33.21;37.86;97010.16;4622362;31;20047;-83
2023/08/22 14:10:35;;;;;;;4.10;2.60;;;;;;;32.53;39.67;96959.25;5273256;23;20039;-81
2023/08/22 14:51:46;;;;;;;4.15;2.97;;;;;;;32.14;40.51;96952.00;5724562;23;20060;-83
2023/08/22 15:00:36;;;;;;;4.82;2.90;;;;;;;32.07;41.28;96947.03;5578325;23;20071;-81
2023/08/22 15:09:10;;;;;;;4.90;2.95;;;;;;;32.09;40.79;96946.75;5087628;23;20038;-82
2023/08/22 15:12:21;;;;;;;5.25;3.17;;;;;;;32.02;40.89;96936.41;4963632;28;20035;-83
2023/08/22 15:15:33;;;;;;;4.78;3.00;;;;;;;31.99;40.98;96928.91;4962857;28;20039;-83
2023/08/22 16:52:53;;;;;;;6.20;3.10;;;;;;;30.71;44.13;96922.09;6263941;22;20004;-81
2023/08/22 17:06:28;;;;;;;3.33;2.50;;;;;;;30.55;46.07;96916.25;6235955;22;20044;-79
2023/08/22 17:09:01;;;;;;;4.03;3.15;;;;;;;30.50;46.16;96921.75;6252833;22;20035;-81
2023/08/22 18:56:50;;;;;;;;;;;;;;;28.32;54.00;96950.09;6234300;22;20020;-81
2023/08/22 18:59:18;;;;;;;7.28;3.80;;;;;;;28.24;54.78;96954.22;6246995;23;19974;-81
2023/08/22 19:01:45;;;;;;;5.32;3.80;;;;;;;28.17;54.51;96953.75;6244832;22;20020;-82
2023/08/22 19:04:13;;;;;;;9.15;4.05;;;;;;;28.09;54.84;96957.06;6246047;23;20027;-81
2023/08/22 19:06:41;;;;;;;8.55;4.40;;;;;;;28.04;55.17;96963.28;6246844;23;20023;-81
2023/08/22 19:09:08;;;;;;;9.50;4.85;;;;;;;27.97;55.28;96959.34;6245899;23;20352;-80
2023/08/22 19:11:36;;;;;;;12.00;6.18;;;;;;;27.90;55.54;96965.88;6245602;22;20043;-82
2023/08/22 19:14:04;;;;;;;13.07;8.90;;;;;;;27.84;55.67;96966.97;6247666;23;20020;-81
2023/08/22 19:16:33;;;;;;;9.73;6.93;;;;;;;27.80;55.30;96965.16;6245913;23;20070;-81
2023/08/22 19:19:00;;;;;;;7.75;4.60;;;;;;;27.74;55.41;96970.53;6246073;23;20024;-81
2023/08/22 19:21:28;;;;;;;7.30;4.20;;;;;;;27.69;55.39;96964.44;6249125;22;20024;-82
2023/08/22 19:23:55;;;;;;;7.38;5.18;;;;;;;27.63;55.77;96963.69;6255944;23;20024;-82
2023/08/22 19:26:23;;;;;;;7.65;4.82;;;;;;;27.59;56.21;96959.97;6247309;23;20454;-81
2023/08/22 19:28:51;;;;;;;7.93;5.22;;;;;;;27.55;55.83;96967.00;6249063;23;20024;-81
2023/08/22 19:31:20;;;;;;;5.25;4.57;;;;;;;27.50;56.04;96973.19;6249455;22;20074;-80
2023/08/22 19:33:47;;;;;;;8.35;4.10;;;;;;;27.45;55.67;96969.75;6250573;23;20020;-81
2023/08/22 19:36:15;;;;;;;8.55;4.00;;;;;;;27.38;56.28;96969.28;6246583;23;20071;-82
2023/08/22 19:38:43;;;;;;;8.27;4.20;;;;;;;27.33;56.21;96972.78;6247395;23;20024;-80
2023/08/22 19:41:12;;;;;;;7.75;4.43;;;;;;;27.25;56.53;96973.41;6269642;22;20028;-82
2023/08/22 19:43:43;;;;;;;5.50;3.78;;;;;;;27.19;56.46;96972.59;6268437;22;20047;-81
2023/08/22 19:46:11;;;;;;;4.57;3.28;;;;;;;27.13;57.29;96971.88;6264208;23;20028;-81
2023/08/22 19:48:41;;;;;;;6.55;4.05;;;;;;;27.06;57.24;96982.06;6256900;23;20024;-82
2023/08/22 19:54:10;;;;;;;5.82;4.28;;;;;;;26.93;58.82;96982.69;6268021;22;20020;-79
2023/08/22 19:56:43;;;;;;;5.57;3.53;;;;;;;26.82;58.65;96984.63;6273066;22;20083;-82
2023/08/22 20:02:05;;;;;;;6.18;3.58;;;;;;;26.64;60.99;96982.59;6271120;22;20230;-82
2023/08/22 20:04:38;;;;;;;4.10;3.65;;;;;;;26.62;59.58;96980.19;6250754;22;20021;-81
2023/08/22 21:49:46;;;;;;;7.00;4.22;;;;;;;24.75;65.46;96996.91;6227270;22;20027;-71
2023/08/22 21:52:14;;;;;;;5.38;4.00;;;;;;;24.68;66.88;96989.16;6242433;22;20016;-71
2023/08/22 21:54:41;;;;;;;5.72;4.10;;;;;;;24.63;66.81;96989.16;6244364;23;20082;-71
2023/08/22 21:57:09;;;;;;;6.82;4.43;;;;;;;24.58;67.48;96992.59;6244600;23;20016;-71
2023/08/22 21:59:37;;;;;;;6.20;4.25;;;;;;;24.53;68.27;96995.22;6244692;23;20086;-71
2023/08/22 22:02:04;;;;;;;6.18;4.55;;;;;;;24.50;67.70;97001.09;6242376;22;20074;-74
2023/08/22 22:04:32;;;;;;;4.97;3.85;;;;;;;24.51;67.82;97001.91;6241485;23;20082;-73
2023/08/22 22:07:01;;;;;;;6.32;4.65;;;;;;;24.54;68.01;97004.84;6261489;23;20374;-74
2023/08/22 22:09:28;;;;;;;5.05;4.25;;;;;;;24.53;67.62;96999.78;6263492;23;20050;-73
2023/08/22 22:11:56;;;;;;;7.70;4.43;;;;;;;24.49;67.58;96999.50;6255269;23;20024;-73
2023/08/22 22:14:23;;;;;;;6.20;4.45;;;;;;;24.43;68.02;97008.53;6213031;23;20055;-73
2023/08/22 22:16:52;;;;;;;6.05;4.65;;;;;;;24.40;67.79;97004.50;6212723;23;20463;-73
2023/08/22 22:19:20;;;;;;;4.38;3.97;;;;;;;24.37;68.02;97004.22;6214246;23;20060;-74
2023/08/22 22:21:49;;;;;;;7.03;4.45;;;;;;;24.32;68.38;97006.88;6214668;23;20020;-73
2023/08/22 22:24:18;;;;;;;6.28;4.18;;;;;;;24.27;68.02;97005.78;6214714;23;20017;-73
2023/08/22 22:26:45;;;;;;;7.22;4.55;;;;;;;24.22;67.81;97008.41;6214802;23;20028;-74
2023/08/22 22:29:13;;;;;;;3.80;3.38;;;;;;;24.17;68.06;97004.94;6214193;23;20021;-73
2023/08/22 22:31:40;;;;;;;4.25;3.85;;;;;;;24.13;69.08;97015.31;6214756;23;20051;-73
2023/08/22 22:34:08;;;;;;;7.15;4.45;;;;;;;24.10;69.41;97012.38;6214333;23;20308;-73
2023/08/22 22:36:36;;;;;;;6.45;4.05;;;;;;;24.06;69.44;97015.53;6214352;23;20470;-73
2023/08/22 22:39:03;;;;;;;5.30;4.28;;;;;;;24.02;70.08;97016.31;6214275;23;20025;-73
2023/08/22 22:41:32;;;;;;;5.95;4.18;;;;;;;23.97;69.80;97008.28;6214314;23;20051;-74
2023/08/22 22:44:00;;;;;;;5.63;4.22;;;;;;;24.00;69.66;97002.44;6213960;23;20052;-73
2023/08/22 22:46:27;;;;;;;7.05;4.45;;;;;;;24.03;69.02;97008.06;6214789;23;20405;-74
2023/08/22 22:48:55;;;;;;;4.88;4.10;;;;;;;24.04;69.50;97008.84;6214700;23;20097;-73
2023/08/22 22:51:22;;;;;;;5.20;4.70;;;;;;;24.02;69.12;97002.97;6214474;23;20469;-74
2023/08/22 22:53:50;;;;;;;6.57;4.22;;;;;;;24.01;69.14;97004.84;6214177;23;20067;-74
2023/08/22 22:56:17;;;;;;;7.65;4.78;;;;;;;23.98;68.08;97004.56;6214349;23;20025;-74
2023/08/22 22:58:46;;;;;;;4.63;4.05;;;;;;;23.94;68.61;97008.78;6214458;23;20417;-74
2023/08/22 23:01:14;;;;;;;5.68;4.65;;;;;;;23.90;68.79;97007.69;6214280;23;20028;-74
2023/08/22 23:03:42;;;;;;;13.77;4.10;;;;;;;23.87;69.12;97008.22;6213833;23;20024;-74
2023/08/22 23:06:10;;;;;;;6.78;4.50;;;;;;;23.81;68.89;97005.53;6214222;23;20028;-74
2023/08/22 23:08:38;;;;;;;7.00;3.75;;;;;;;23.78;67.51;97000.69;6213986;23;20020;-74
2023/08/22 23:11:05;;;;;;;6.90;4.50;;;;;;;23.75;67.32;97003.06;6214070;23;20528;-74
2023/08/22 23:13:42;;;;;;;4.70;4.30;;;;;;;23.69;66.99;97002.22;6213484;23;20017;-74